Time;durP1;ratioP1;P1;durP2;ratioP2;P2;SDS_P1;SDS_P2;PMS_P1;PMS_P2;Temp;Humidity;BMP_temperature;BMP_pressure;BME280_temperature;BME280_humidity;BME280_pressure;Samples;Min_cycle;Max_cycle;Signal;HPM_P1;HPM_P2
2023/09/02 00:01:48;;;;;;;7.07;2.30;;;;;;;26.37;47.08;96848.63;5072528;28;20024;-28
2023/09/02 00:04:14;;;;;;;7.65;1.95;;;;;;;26.40;47.51;96841.28;5088551;28;20034;-27
2023/09/02 00:06:39;;;;;;;4.78;2.00;;;;;;;26.46;47.43;96842.72;5081391;28;20400;-26
2023/09/02 00:09:05;;;;;;;7.65;2.30;;;;;;;26.40;47.67;96852.41;5088830;28;20016;-28
2023/09/02 00:11:30;;;;;;;8.15;2.13;;;;;;;26.43;47.63;96845.81;5084036;28;20023;-28
2023/09/02 00:13:56;;;;;;;3.17;1.88;;;;;;;26.52;47.72;96834.31;5085126;28;20066;-28
2023/09/02 00:16:21;;;;;;;6.60;2.10;;;;;;;26.45;47.65;96840.47;5082365;28;20073;-28
2023/09/02 00:18:47;;;;;;;6.15;2.08;;;;;;;26.51;47.73;96848.75;5080891;28;20043;-27
2023/09/02 00:21:12;;;;;;;5.68;2.20;;;;;;;26.31;48.54;96841.66;5080544;28;20028;-27
2023/09/02 00:23:43;;;;;;;6.43;2.15;;;;;;;26.43;48.21;96848.59;5076573;28;20016;-27
2023/09/02 00:26:09;;;;;;;6.80;2.38;;;;;;;26.44;48.14;96841.75;5078293;28;20056;-27
2023/09/02 00:28:34;;;;;;;8.13;2.28;;;;;;;26.37;48.94;96836.75;5079693;28;20060;-27
2023/09/02 00:30:59;;;;;;;7.32;2.13;;;;;;;26.44;48.60;96844.53;5078028;28;20028;-27
2023/09/02 00:33:25;;;;;;;4.55;2.00;;;;;;;26.53;47.87;96841.38;5083927;28;20077;-26
2023/09/02 00:35:50;;;;;;;5.78;2.00;;;;;;;26.07;49.18;96845.91;5081130;28;20024;-27
2023/09/02 00:38:16;;;;;;;5.13;2.05;;;;;;;26.18;49.00;96839.47;5080225;28;20025;-27
2023/09/02 00:40:46;;;;;;;7.07;3.30;;;;;;;26.22;48.71;96839.16;5074365;28;20048;-27
2023/09/02 00:43:11;;;;;;;5.95;2.08;;;;;;;26.10;49.12;96833.72;5079737;28;20428;-27
2023/09/02 00:45:37;;;;;;;7.20;2.28;;;;;;;26.03;48.79;96833.56;5080298;28;20069;-27
2023/09/02 00:48:03;;;;;;;4.28;1.90;;;;;;;26.08;48.64;96833.50;5081672;28;20103;-27
2023/09/02 00:50:29;;;;;;;5.25;2.28;;;;;;;26.09;49.43;96826.66;5079008;28;20169;-27
2023/09/02 00:52:54;;;;;;;5.55;2.00;;;;;;;26.11;48.96;96826.88;5075248;28;20025;-26
2023/09/02 00:55:20;;;;;;;5.07;1.88;;;;;;;26.19;49.26;96827.09;5080767;28;20025;-29
2023/09/02 00:57:46;;;;;;;8.90;2.13;;;;;;;26.39;48.61;96817.53;5080169;28;20025;-28
2023/09/02 01:00:13;;;;;;;4.70;2.15;;;;;;;26.33;48.69;96827.97;5082459;28;20473;-27
2023/09/02 01:02:39;;;;;;;6.18;2.20;;;;;;;26.35;48.38;96825.41;5084302;28;20392;-27
2023/09/02 01:05:06;;;;;;;6.93;2.30;;;;;;;26.28;48.92;96823.22;5082357;28;20111;-27
2023/09/02 01:07:34;;;;;;;8.75;2.42;;;;;;;26.42;48.31;96819.28;5076779;28;20392;-27
2023/09/02 01:10:00;;;;;;;5.28;2.50;;;;;;;26.48;48.14;96814.38;5083075;28;20115;-28
2023/09/02 01:12:26;;;;;;;5.95;2.13;;;;;;;26.40;48.11;96810.69;5083226;28;20099;-27
2023/09/02 01:14:51;;;;;;;5.28;1.92;;;;;;;26.40;48.37;96814.22;5083736;28;20028;-27
2023/09/02 01:17:17;;;;;;;3.80;1.85;;;;;;;26.36;48.21;96816.53;5075226;28;20029;-27
2023/09/02 01:19:44;;;;;;;4.78;1.73;;;;;;;26.29;48.48;96819.91;5083418;28;20441;-27
2023/09/02 01:22:37;;;;;;;8.02;2.60;;;;;;;26.48;48.21;96811.59;5076949;28;20024;-27
2023/09/02 01:25:25;;;;;;;;;;;;;;;26.47;47.88;96815.66;5086690;28;20027;-27
2023/09/02 01:27:59;;;;;;;6.38;2.10;;;;;;;26.32;48.62;96816.09;5080499;28;20281;-27
2023/09/02 01:30:27;;;;;;;5.25;2.05;;;;;;;26.44;48.14;96813.94;5087130;28;20024;-26
2023/09/02 01:32:55;;;;;;;6.88;1.98;;;;;;;26.31;48.64;96824.97;5075771;28;20019;-28
2023/09/02 01:35:32;;;;;;;4.72;2.17;;;;;;;26.08;49.26;96808.50;5077383;28;20024;-27
2023/09/02 01:37:59;;;;;;;8.45;2.40;;;;;;;26.09;48.78;96815.53;5080710;28;20099;-27
2023/09/02 01:40:27;;;;;;;6.97;1.95;;;;;;;26.02;49.46;96815.38;5086496;28;20476;-27
2023/09/02 01:42:56;;;;;;;4.72;2.05;;;;;;;26.09;49.04;96812.00;5080319;28;20032;-27
2023/09/02 01:45:24;;;;;;;7.53;2.10;;;;;;;25.98;49.26;96821.22;5080204;28;20411;-27
2023/09/02 01:47:51;;;;;;;5.07;2.00;;;;;;;25.97;49.65;96819.69;5080259;28;20024;-27
2023/09/02 01:50:21;;;;;;;5.93;1.92;;;;;;;25.98;49.50;96821.22;5079257;28;20070;-27
2023/09/02 01:52:47;;;;;;;6.03;2.08;;;;;;;25.97;49.99;96819.69;5080147;28;20016;-28
2023/09/02 01:55:14;;;;;;;7.50;2.38;;;;;;;26.03;49.28;96811.31;5082328;28;20024;-26
2023/09/02 01:57:40;;;;;;;5.82;1.80;;;;;;;26.12;49.09;96819.31;5083292;28;20425;-27
2023/09/02 02:00:06;;;;;;;5.78;1.98;;;;;;;25.97;49.71;96816.91;5081498;28;20062;-28
2023/09/02 02:02:32;;;;;;;5.45;2.20;;;;;;;25.96;49.38;96812.66;5083531;28;20016;-27
2023/09/02 02:05:01;;;;;;;5.00;1.98;;;;;;;25.89;49.99;96816.00;5075738;28;20077;-27
2023/09/02 02:07:33;;;;;;;3.90;1.85;;;;;;;26.03;49.76;96811.31;5082730;28;20022;-26
2023/09/02 02:10:00;;;;;;;6.90;2.38;;;;;;;25.97;49.62;96802.28;5082990;28;20110;-27
2023/09/02 02:12:27;;;;;;;5.80;2.92;;;;;;;26.05;49.16;96809.53;5087482;28;20024;-28
2023/09/02 02:14:53;;;;;;;5.15;2.03;;;;;;;26.13;49.41;96810.44;5072237;28;20111;-27
2023/09/02 02:17:18;;;;;;;3.97;2.28;;;;;;;26.17;49.39;96803.84;5080151;28;20095;-27
2023/09/02 02:19:44;;;;;;;8.55;2.40;;;;;;;26.23;49.24;96807.31;5080372;28;20031;-28
2023/09/02 02:22:10;;;;;;;5.05;1.98;;;;;;;26.09;49.31;96801.63;5083270;28;20027;-27
2023/09/02 02:24:36;;;;;;;3.22;1.88;;;;;;;26.01;49.22;96797.94;5083706;28;20077;-27
2023/09/02 02:27:02;;;;;;;5.75;2.13;;;;;;;25.98;49.34;96793.41;5083648;28;20021;-28
2023/09/02 02:29:36;;;;;;;4.70;2.58;;;;;;;25.80;49.88;96796.91;5083840;28;20028;-27
2023/09/02 02:32:01;;;;;;;12.32;2.88;;;;;;;25.95;49.26;96793.72;5080638;28;20099;-27
2023/09/02 02:34:27;;;;;;;5.30;2.00;;;;;;;25.96;49.49;96798.00;5079094;28;20034;-27
2023/09/02 02:36:52;;;;;;;3.92;2.08;;;;;;;25.86;49.17;96789.25;5083139;28;20024;-27
2023/09/02 02:39:18;;;;;;;4.22;1.70;;;;;;;26.20;48.39;96786.88;5082839;28;20024;-27
2023/09/02 02:41:43;;;;;;;3.85;1.95;;;;;;;26.01;48.87;96791.63;5075924;28;20029;-27
2023/09/02 02:44:09;;;;;;;6.50;2.70;;;;;;;26.05;48.51;96798.41;5082705;28;20095;-28
2023/09/02 02:46:34;;;;;;;6.03;2.10;;;;;;;25.96;48.79;96796.00;5083069;28;20454;-27
2023/09/02 02:49:00;;;;;;;4.85;2.10;;;;;;;26.16;48.64;96796.78;5077398;28;20431;-28
2023/09/02 02:51:25;;;;;;;3.67;2.00;;;;;;;26.01;48.47;96803.50;5086208;28;20526;-28
2023/09/02 02:53:51;;;;;;;5.78;2.35;;;;;;;25.88;49.15;96799.84;5077221;28;20531;-27
2023/09/02 02:56:16;;;;;;;6.15;2.08;;;;;;;26.00;48.15;96788.09;5082990;28;20019;-27
2023/09/02 02:58:42;;;;;;;6.57;2.30;;;;;;;25.88;48.00;96785.94;5075527;28;20032;-26
2023/09/02 03:01:09;;;;;;;4.20;2.15;;;;;;;25.88;47.75;96795.03;5083625;28;20060;-27
2023/09/02 03:03:35;;;;;;;5.82;2.00;;;;;;;25.85;47.94;96796.06;5081773;28;20028;-26
2023/09/02 03:06:03;;;;;;;3.35;1.77;;;;;;;25.95;47.63;96791.69;5081736;28;20146;-27
2023/09/02 03:08:29;;;;;;;3.80;1.60;;;;;;;26.02;47.23;96787.56;5085455;28;20089;-27
2023/09/02 03:11:07;;;;;;;5.80;1.65;;;;;;;25.93;47.43;96785.91;5079262;28;20029;-27
2023/09/02 03:13:33;;;;;;;4.22;2.08;;;;;;;26.03;46.81;96787.06;5082849;28;20012;-27
2023/09/02 03:16:01;;;;;;;10.05;2.08;;;;;;;25.88;47.33;96777.63;5082219;28;20385;-26
2023/09/02 03:18:26;;;;;;;4.45;1.63;;;;;;;26.03;46.69;96789.84;5082827;28;20020;-27
2023/09/02 03:20:52;;;;;;;4.53;1.70;;;;;;;26.03;46.83;96789.84;5082309;28;20017;-27
2023/09/02 03:23:18;;;;;;;5.65;1.50;;;;;;;25.97;46.29;96780.78;5082007;28;20024;-27
2023/09/02 03:25:43;;;;;;;6.13;2.40;;;;;;;25.80;46.89;96777.44;5084760;28;20032;-28
2023/09/02 03:28:09;;;;;;;5.50;1.98;;;;;;;26.11;46.11;96790.00;5085184;28;20439;-27
2023/09/02 03:30:34;;;;;;;4.40;1.63;;;;;;;26.15;45.71;96784.16;5083112;28;20024;-27
2023/09/02 03:33:00;;;;;;;6.15;2.00;;;;;;;26.11;45.70;96776.84;5077909;28;20465;-26
2023/09/02 03:35:25;;;;;;;2.67;1.70;;;;;;;25.98;46.25;96787.84;5077998;28;20404;-27
2023/09/02 03:37:51;;;;;;;4.35;2.40;;;;;;;26.07;45.44;96784.75;5089262;28;20051;-28
2023/09/02 03:40:17;;;;;;;4.30;2.08;;;;;;;25.92;46.02;96778.84;5081577;28;20048;-27
2023/09/02 03:42:43;;;;;;;4.07;1.70;;;;;;;26.13;45.48;96777.09;5081765;28;20021;-27
2023/09/02 03:45:09;;;;;;;5.18;2.00;;;;;;;26.15;45.83;96789.72;5085499;28;20016;-28
2023/09/02 03:47:36;;;;;;;5.03;1.85;;;;;;;26.08;45.02;96789.03;5076561;28;20028;-27
2023/09/02 03:50:04;;;;;;;4.20;1.80;;;;;;;26.17;45.10;96792.72;5081344;28;20032;-27
2023/09/02 03:52:29;;;;;;;5.22;1.77;;;;;;;26.23;45.47;96796.19;5081608;28;20165;-27
2023/09/02 03:54:55;;;;;;;6.25;2.03;;;;;;;26.03;45.53;96791.88;5072684;28;20525;-26
2023/09/02 03:57:21;;;;;;;3.33;1.55;;;;;;;26.10;45.80;96796.84;5085078;28;20107;-27
2023/09/02 03:59:46;;;;;;;4.50;1.90;;;;;;;26.11;45.44;96787.22;5085246;28;20069;-27
2023/09/02 04:02:13;;;;;;;3.30;1.90;;;;;;;26.19;45.18;96784.63;5083133;28;20066;-27
2023/09/02 04:04:39;;;;;;;6.65;2.10;;;;;;;26.01;45.55;96792.38;5086440;28;20053;-27
2023/09/02 04:07:05;;;;;;;4.65;2.45;;;;;;;25.91;45.90;96784.91;5080664;28;20024;-27
2023/09/02 04:09:30;;;;;;;5.80;2.03;;;;;;;25.92;45.99;96789.97;5081759;28;20021;-27
2023/09/02 04:11:57;;;;;;;4.53;1.70;;;;;;;26.03;45.82;96791.88;5087824;28;20157;-27
2023/09/02 04:14:23;;;;;;;4.80;1.83;;;;;;;25.97;45.83;96791.91;5076290;28;20029;-27
2023/09/02 04:16:48;;;;;;;3.72;2.20;;;;;;;26.17;45.13;96787.16;5079441;28;20025;-29
2023/09/02 04:19:17;;;;;;;5.32;1.95;;;;;;;25.97;46.06;96785.59;5088398;28;20503;-27
2023/09/02 04:21:43;;;;;;;5.60;2.10;;;;;;;25.90;45.83;96786.94;5084376;28;20034;-28
2023/09/02 04:24:08;;;;;;;5.63;1.98;;;;;;;26.04;45.76;96791.34;5084851;28;20028;-27
2023/09/02 04:26:34;;;;;;;5.90;2.63;;;;;;;25.96;45.86;96790.44;5074815;28;20052;-27
2023/09/02 04:29:00;;;;;;;3.45;2.03;;;;;;;25.99;45.52;96791.38;5085539;28;20469;-26
2023/09/02 04:31:26;;;;;;;5.80;1.90;;;;;;;26.13;45.26;96793.78;5083957;28;20430;-28
2023/09/02 04:33:51;;;;;;;5.97;1.52;;;;;;;25.97;45.74;96794.69;5076524;28;20051;-27
2023/09/02 04:36:17;;;;;;;5.45;2.13;;;;;;;25.96;45.57;96798.78;5085202;28;20091;-27
2023/09/02 04:38:42;;;;;;;6.05;1.75;;;;;;;26.03;45.60;96800.97;5081300;28;20028;-26
2023/09/02 04:41:08;;;;;;;5.18;2.00;;;;;;;26.05;45.36;96798.41;5077469;28;20067;-28
2023/09/02 04:43:35;;;;;;;3.53;1.85;;;;;;;26.12;45.25;96808.94;5083495;28;20392;-27
2023/09/02 04:46:03;;;;;;;4.45;1.50;;;;;;;25.99;45.54;96806.03;5075822;28;20025;-27
2023/09/02 04:48:29;;;;;;;4.78;2.05;;;;;;;25.98;45.67;96812.88;5085027;28;20032;-27
2023/09/02 04:50:55;;;;;;;3.55;1.63;;;;;;;25.99;45.48;96811.59;5080422;28;20055;-29
2023/09/02 04:53:22;;;;;;;3.88;1.80;;;;;;;25.96;45.78;96812.66;5072479;28;20051;-27
2023/09/02 04:55:49;;;;;;;3.45;1.88;;;;;;;25.85;46.02;96815.53;5080488;28;20017;-27
2023/09/02 04:58:15;;;;;;;3.65;2.10;;;;;;;26.01;45.58;96811.84;5083573;28;20038;-26
2023/09/02 05:00:40;;;;;;;4.03;1.80;;;;;;;25.95;45.44;96810.41;5083746;28;20052;-28
2023/09/02 05:03:08;;;;;;;6.38;2.05;;;;;;;26.15;45.45;96817.50;5075331;28;20046;-28
2023/09/02 05:05:34;;;;;;;4.88;1.80;;;;;;;25.82;45.74;96813.81;5079781;28;20036;-27
2023/09/02 05:07:59;;;;;;;3.40;1.60;;;;;;;25.83;45.98;96820.13;5080042;28;20024;-26
2023/09/02 05:10:25;;;;;;;3.88;1.55;;;;;;;25.85;45.71;96821.06;5080597;28;20574;-27
2023/09/02 05:12:51;;;;;;;3.92;1.88;;;;;;;25.69;46.27;96827.56;5078488;28;20016;-27
2023/09/02 05:15:16;;;;;;;4.68;1.92;;;;;;;25.72;46.50;96829.28;5073725;28;20039;-27
2023/09/02 05:17:42;;;;;;;5.28;2.00;;;;;;;25.85;45.64;96821.06;5086875;28;20347;-28
2023/09/02 05:20:08;;;;;;;4.47;1.98;;;;;;;25.74;45.91;96837.84;5080226;28;20055;-27
2023/09/02 05:22:34;;;;;;;5.43;2.00;;;;;;;25.69;46.30;96844.97;5075241;28;20068;-26
2023/09/02 05:25:01;;;;;;;4.03;2.30;;;;;;;25.62;46.37;96845.53;5077971;28;20028;-28
2023/09/02 05:27:26;;;;;;;7.10;2.88;;;;;;;25.54;46.95;96852.88;5087370;28;20027;-27
2023/09/02 05:29:52;;;;;;;4.70;1.77;;;;;;;25.44;47.25;96854.47;5080695;28;20021;-28
2023/09/02 05:32:17;;;;;;;6.40;2.50;;;;;;;25.45;47.45;96855.22;5080124;28;20530;-29
2023/09/02 05:34:43;;;;;;;8.57;2.60;;;;;;;25.31;48.19;96865.41;5080463;28;20487;-27
2023/09/02 05:37:09;;;;;;;6.78;2.08;;;;;;;25.64;47.59;96858.91;5084952;28;20028;-26
2023/09/02 05:39:34;;;;;;;7.68;2.33;;;;;;;25.44;48.46;96857.25;5082626;28;20044;-27
2023/09/02 05:42:00;;;;;;;5.15;2.10;;;;;;;25.54;47.81;96860.47;5080422;28;20025;-27
2023/09/02 05:44:25;;;;;;;5.95;1.95;;;;;;;25.59;48.13;96856.91;5080245;28;20378;-27
2023/09/02 05:46:51;;;;;;;4.45;2.20;;;;;;;25.63;47.92;96857.38;5079652;28;20027;-28
2023/09/02 05:49:17;;;;;;;5.07;2.28;;;;;;;25.66;47.54;96862.66;5077376;28;20020;-27
2023/09/02 05:51:42;;;;;;;5.97;2.30;;;;;;;25.77;47.46;96859.03;5083471;28;20112;-27
2023/09/02 05:54:09;;;;;;;4.97;2.08;;;;;;;25.69;47.98;96858.09;5087641;28;20031;-26
2023/09/02 05:56:35;;;;;;;5.65;2.28;;;;;;;25.77;47.77;96868.13;5083283;28;20020;-27
2023/09/02 05:59:01;;;;;;;4.00;2.35;;;;;;;25.81;47.52;96867.09;5084549;28;20036;-27
2023/09/02 06:01:27;;;;;;;4.95;2.10;;;;;;;26.00;47.33;96862.38;5083036;28;20103;-28
2023/09/02 06:03:52;;;;;;;4.18;2.00;;;;;;;25.77;48.24;96872.94;5083846;28;20100;-26
2023/09/02 06:06:18;;;;;;;6.03;1.85;;;;;;;25.81;47.93;96856.75;5083904;28;20516;-27
2023/09/02 06:08:43;;;;;;;7.75;2.15;;;;;;;25.70;47.95;96867.94;5083804;28;20033;-27
2023/09/02 06:11:09;;;;;;;5.13;2.13;;;;;;;25.94;47.48;96867.25;5083569;28;20021;-27
2023/09/02 06:13:35;;;;;;;5.80;2.03;;;;;;;25.89;47.78;96868.78;5074648;28;20012;-26
2023/09/02 06:16:02;;;;;;;2.58;1.83;;;;;;;25.89;47.71;96868.78;5082413;28;20338;-27
2023/09/02 06:18:27;;;;;;;4.15;1.77;;;;;;;25.79;48.20;96864.84;5085922;28;20184;-26
2023/09/02 06:20:53;;;;;;;3.75;1.80;;;;;;;25.84;47.49;96866.81;5081968;28;20021;-27
2023/09/02 06:23:19;;;;;;;3.90;2.10;;;;;;;25.92;47.35;96867.00;5083445;28;20099;-27
2023/09/02 06:25:45;;;;;;;5.85;2.00;;;;;;;26.05;47.13;96858.81;5083431;28;20067;-27
2023/09/02 06:28:10;;;;;;;6.85;1.92;;;;;;;26.13;46.98;96860.47;5083497;28;20025;-27
2023/09/02 06:30:36;;;;;;;5.60;2.63;;;;;;;26.05;47.14;96859.56;5083995;28;20024;-28
2023/09/02 06:33:03;;;;;;;6.40;2.38;;;;;;;26.02;47.65;96860.59;5079818;28;20069;-27
2023/09/02 06:35:31;;;;;;;4.15;2.13;;;;;;;26.11;47.29;96868.59;5078889;28;20030;-27
2023/09/02 06:37:57;;;;;;;2.88;1.60;;;;;;;25.91;47.89;96869.03;5085596;28;20077;-27
2023/09/02 06:40:22;;;;;;;4.50;2.00;;;;;;;26.25;47.19;96865.94;5079597;28;20048;-27
2023/09/02 06:42:48;;;;;;;4.63;2.00;;;;;;;26.24;47.05;96869.97;5076239;28;20111;-27
2023/09/02 06:45:13;;;;;;;6.43;2.25;;;;;;;26.07;47.66;96868.13;5082204;28;20031;-28
2023/09/02 06:47:38;;;;;;;9.80;2.55;;;;;;;26.09;47.44;96860.00;5083254;28;20027;-26
2023/09/02 06:50:05;;;;;;;5.95;1.90;;;;;;;26.09;47.40;96865.56;5082679;28;20024;-27
2023/09/02 06:52:30;;;;;;;4.75;1.98;;;;;;;26.09;47.26;96871.13;5088649;28;20016;-26
2023/09/02 06:54:56;;;;;;;4.65;2.05;;;;;;;26.13;47.63;96876.41;5084535;28;20021;-27
2023/09/02 06:57:21;;;;;;;3.70;2.00;;;;;;;26.20;47.11;96870.28;5081951;28;20020;-27
2023/09/02 06:59:46;;;;;;;7.63;1.90;;;;;;;26.16;47.13;96877.41;5082635;28;20104;-29
2023/09/02 07:02:12;;;;;;;6.55;1.92;;;;;;;26.04;47.77;96883.06;5082783;28;20063;-27
2023/09/02 07:04:37;;;;;;;3.55;1.75;;;;;;;26.10;47.85;96886.53;5080537;28;20020;-27
2023/09/02 07:07:03;;;;;;;4.03;2.13;;;;;;;26.25;47.19;96882.63;5075853;28;20027;-27
2023/09/02 07:09:28;;;;;;;8.35;2.13;;;;;;;25.95;48.10;96885.44;5085059;28;20031;-27
2023/09/02 07:11:55;;;;;;;8.55;2.20;;;;;;;26.00;47.84;96892.94;5079111;28;20009;-27
2023/09/02 07:14:20;;;;;;;5.95;1.95;;;;;;;26.31;46.84;96891.69;5083576;28;20021;-27
2023/09/02 07:16:46;;;;;;;4.20;1.85;;;;;;;26.07;47.49;96889.63;5081409;28;20495;-27
2023/09/02 07:19:11;;;;;;;6.88;1.95;;;;;;;26.12;47.52;96897.13;5082012;28;20021;-27
2023/09/02 07:21:37;;;;;;;5.43;2.05;;;;;;;26.17;47.14;96893.56;5082071;28;20020;-27
2023/09/02 07:24:02;;;;;;;7.00;2.40;;;;;;;26.32;46.99;96890.44;5082483;28;20024;-26
2023/09/02 07:26:32;;;;;;;6.85;2.47;;;;;;;26.30;47.01;96892.97;5081784;28;20070;-28
2023/09/02 07:28:58;;;;;;;5.28;1.67;;;;;;;26.13;47.37;96896.63;5081949;28;20048;-27
2023/09/02 07:31:24;;;;;;;7.97;2.20;;;;;;;26.29;46.65;96889.44;5081913;28;20408;-27
2023/09/02 07:33:49;;;;;;;5.80;2.25;;;;;;;26.18;47.01;96900.63;5084286;28;20024;-27
2023/09/02 07:36:15;;;;;;;5.68;2.10;;;;;;;26.18;46.68;96897.09;5086694;28;20097;-26
2023/09/02 07:38:41;;;;;;;6.20;2.30;;;;;;;26.08;46.79;96903.00;5082040;28;20071;-28
2023/09/02 07:41:07;;;;;;;3.70;1.88;;;;;;;26.24;46.69;96906.88;5088277;28;20045;-27
2023/09/02 07:43:32;;;;;;;4.03;1.67;;;;;;;26.17;46.96;96903.94;5074971;28;20518;-26
2023/09/02 07:45:58;;;;;;;3.15;1.73;;;;;;;26.39;46.42;96903.75;5089164;28;20069;-29
2023/09/02 07:48:24;;;;;;;4.63;2.05;;;;;;;26.32;46.48;96909.88;5074136;28;20025;-26
2023/09/02 07:50:49;;;;;;;5.40;2.03;;;;;;;26.30;46.13;96918.00;5088990;28;20434;-27
2023/09/02 07:53:14;;;;;;;5.38;1.98;;;;;;;26.39;46.01;96920.44;5084979;28;20031;-26
2023/09/02 07:55:40;;;;;;;3.78;1.80;;;;;;;26.44;46.32;96916.84;5077838;28;20017;-26
2023/09/02 07:58:06;;;;;;;6.07;2.00;;;;;;;26.58;45.41;96926.78;5081918;28;20031;-27
2023/09/02 08:00:38;;;;;;;5.30;1.90;;;;;;;26.55;45.44;96921.53;5079377;28;20382;-27
2023/09/02 08:03:04;;;;;;;3.30;1.92;;;;;;;26.42;45.34;96919.38;5083157;28;20024;-26
2023/09/02 08:05:30;;;;;;;5.10;2.00;;;;;;;26.52;44.85;96917.75;5072404;28;20377;-27
2023/09/02 08:07:56;;;;;;;4.35;1.80;;;;;;;26.43;45.12;96921.66;5081290;28;20020;-27
2023/09/02 08:10:21;;;;;;;5.97;2.03;;;;;;;26.53;45.16;96921.31;5076024;28;20024;-26
2023/09/02 08:12:47;;;;;;;4.20;2.17;;;;;;;26.56;45.16;96923.81;5080090;28;20083;-26
2023/09/02 08:15:13;;;;;;;4.47;1.88;;;;;;;26.62;44.72;96927.25;5080876;28;20021;-26
2023/09/02 08:17:43;;;;;;;4.88;1.58;;;;;;;26.80;44.90;96926.56;5087958;28;20028;-28
2023/09/02 08:20:09;;;;;;;3.75;1.75;;;;;;;26.67;45.13;96928.50;5072120;28;20037;-27
2023/09/02 08:22:39;;;;;;;4.15;2.30;;;;;;;26.58;45.46;96926.06;5088654;28;20023;-27
2023/09/02 08:25:06;;;;;;;3.58;1.98;;;;;;;26.52;45.27;96926.09;5080748;28;20056;-27
2023/09/02 08:27:31;;;;;;;4.95;2.05;;;;;;;26.79;45.08;96919.50;5073196;28;20025;-27
2023/09/02 08:29:57;;;;;;;4.35;1.80;;;;;;;26.64;45.38;96923.97;5079811;28;20020;-26
2023/09/02 08:32:22;;;;;;;4.05;2.08;;;;;;;26.59;45.34;96928.28;5080190;28;20485;-27
2023/09/02 08:34:48;;;;;;;3.58;1.95;;;;;;;26.87;44.90;96921.69;5080503;28;20020;-26
2023/09/02 08:37:13;;;;;;;4.65;1.90;;;;;;;27.00;44.59;96924.59;5073383;28;20392;-26
2023/09/02 08:39:38;;;;;;;3.97;2.20;;;;;;;26.81;44.93;96930.88;5080585;28;20097;-27
2023/09/02 08:42:05;;;;;;;4.78;2.03;;;;;;;27.00;44.82;96927.38;5080947;28;20031;-26
2023/09/02 08:44:38;;;;;;;4.00;1.60;;;;;;;26.92;44.64;96929.22;5080475;28;20017;-27
2023/09/02 08:47:04;;;;;;;3.33;1.90;;;;;;;26.97;44.85;96931.19;5083512;28;20097;-29
2023/09/02 08:49:31;;;;;;;2.63;1.75;;;;;;;26.99;44.86;96939.78;5077654;28;20100;-27
2023/09/02 08:51:57;;;;;;;4.38;2.00;;;;;;;26.91;44.82;96938.84;5080985;28;20034;-27
2023/09/02 08:54:25;;;;;;;6.60;2.35;;;;;;;26.95;44.77;96942.13;5077016;28;20012;-27
2023/09/02 08:56:51;;;;;;;5.40;2.33;;;;;;;27.01;45.12;96949.13;5083648;28;20031;-26
2023/09/02 08:59:18;;;;;;;5.03;2.35;;;;;;;27.04;44.70;96950.09;5080357;28;20081;-27
2023/09/02 09:01:45;;;;;;;4.25;1.98;;;;;;;27.01;44.96;96945.59;5079769;28;20074;-26
2023/09/02 09:04:15;;;;;;;5.28;2.33;;;;;;;27.03;45.12;96943.03;5080737;28;20094;-26
2023/09/02 09:06:42;;;;;;;6.72;2.10;;;;;;;27.12;45.03;96951.75;5073328;28;20024;-26
2023/09/02 09:09:09;;;;;;;4.22;2.00;;;;;;;27.16;44.58;96946.66;5080529;28;20111;-26
2023/09/02 09:11:41;;;;;;;6.93;2.40;;;;;;;27.10;45.19;96953.56;5079152;28;20028;-26
2023/09/02 09:14:16;;;;;;;4.07;2.50;;;;;;;27.20;44.71;96951.19;5079984;28;20393;-27
2023/09/02 09:16:43;;;;;;;5.80;2.17;;;;;;;27.35;44.69;96954.25;5084229;28;20473;-26
2023/09/02 09:19:09;;;;;;;4.28;2.30;;;;;;;27.24;44.85;96946.81;5075918;28;20027;-26
2023/09/02 09:21:34;;;;;;;5.45;2.42;;;;;;;27.30;45.23;96955.09;5080281;28;20380;-27
2023/09/02 09:24:01;;;;;;;6.50;2.88;;;;;;;27.23;45.46;96950.88;5080411;28;20381;-26
2023/09/02 09:26:27;;;;;;;13.07;7.55;;;;;;;27.23;45.91;96961.25;5080753;28;20027;-26
2023/09/02 09:28:56;;;;;;;5.32;3.17;;;;;;;27.23;45.71;96939.72;5083195;28;20468;-26
2023/09/02 09:31:23;;;;;;;6.63;3.30;;;;;;;27.45;45.29;96950.56;5086511;28;20028;-28
2023/09/02 09:33:53;;;;;;;8.90;2.97;;;;;;;27.32;45.74;96946.97;5086464;28;20120;-27
2023/09/02 09:36:22;;;;;;;6.55;3.05;;;;;;;27.35;45.71;96949.44;5088023;28;20428;-27
2023/09/02 09:38:55;;;;;;;5.97;2.63;;;;;;;27.28;45.71;96947.28;5079046;28;20431;-28
2023/09/02 09:41:23;;;;;;;7.05;2.78;;;;;;;27.38;45.66;96933.72;5088794;28;20040;-27
2023/09/02 09:44:14;;;;;;;6.05;2.67;;;;;;;27.33;45.73;96943.66;5084522;28;20046;-28
2023/09/02 09:46:42;;;;;;;5.68;2.55;;;;;;;27.30;46.27;96938.41;5086875;28;20396;-27
2023/09/02 09:49:30;;;;;;;5.13;2.45;;;;;;;27.30;46.21;96944.72;5086835;28;20060;-26
2023/09/02 09:52:01;;;;;;;4.18;2.13;;;;;;;27.36;45.84;96939.81;5078662;28;20056;-27
2023/09/02 09:54:47;;;;;;;5.05;2.60;;;;;;;27.30;45.29;96939.16;5089962;28;20099;-26
2023/09/02 09:57:36;;;;;;;4.10;2.40;;;;;;;27.38;44.97;96939.28;5086870;28;20108;-28
2023/09/02 10:00:05;;;;;;;5.38;1.98;;;;;;;27.52;44.73;96938.09;5084697;28;20024;-27
2023/09/02 10:02:30;;;;;;;3.80;2.00;;;;;;;27.30;45.38;96941.94;5080848;28;20016;-27
2023/09/02 10:04:57;;;;;;;4.88;2.40;;;;;;;27.42;44.93;96934.19;5079655;28;20123;-27
2023/09/02 10:07:23;;;;;;;3.20;2.13;;;;;;;27.50;44.83;96941.41;5084256;28;20020;-27
2023/09/02 10:09:49;;;;;;;4.97;2.15;;;;;;;27.57;44.52;96936.53;5083672;28;20016;-28
2023/09/02 10:12:15;;;;;;;3.30;2.08;;;;;;;27.43;44.64;96930.88;5084902;28;20023;-27
2023/09/02 10:14:48;;;;;;;3.45;2.28;;;;;;;27.51;44.07;96933.78;5082531;28;20101;-27
2023/09/02 10:17:14;;;;;;;;;;;;;;;27.52;44.01;96932.50;5091579;28;20397;-28
2023/09/02 10:19:41;;;;;;;3.92;2.38;;;;;;;27.42;43.94;96932.16;5083249;28;19915;-27
2023/09/02 10:22:07;;;;;;;4.47;2.30;;;;;;;27.49;43.43;96928.75;5076413;28;20027;-27
2023/09/02 10:24:41;;;;;;;4.90;2.38;;;;;;;27.64;43.16;96935.91;5085015;28;20032;-27
2023/09/02 10:27:16;;;;;;;4.82;2.53;;;;;;;27.61;42.83;96923.78;5080550;28;20042;-26
2023/09/02 10:29:43;;;;;;;4.32;2.22;;;;;;;27.64;42.83;96927.56;5082964;28;20105;-27
2023/09/02 10:32:12;;;;;;;8.30;2.30;;;;;;;27.58;43.27;96924.09;5081736;28;20052;-27
2023/09/02 10:34:47;;;;;;;3.60;2.17;;;;;;;27.56;42.94;96926.69;5077346;28;20028;-26
2023/09/02 10:37:15;;;;;;;4.25;2.25;;;;;;;27.59;43.25;96928.38;5088553;28;20032;-28
2023/09/02 10:40:00;;;;;;;5.45;2.28;;;;;;;27.58;42.56;96929.66;5084696;28;20055;-27
2023/09/02 10:42:26;;;;;;;3.88;2.35;;;;;;;27.66;42.85;96930.56;5079281;28;20048;-27
2023/09/02 10:44:52;;;;;;;4.82;2.20;;;;;;;27.61;43.26;96929.38;5082333;28;20474;-27
2023/09/02 10:47:18;;;;;;;5.47;2.00;;;;;;;27.57;43.17;96933.75;5083296;28;20029;-27
2023/09/02 10:49:44;;;;;;;6.18;2.40;;;;;;;27.64;42.15;96933.88;5082491;28;20012;-28
2023/09/02 10:52:10;;;;;;;3.92;1.98;;;;;;;27.68;42.41;96933.59;5082842;28;20021;-27
2023/09/02 10:55:05;;;;;;;6.72;2.90;;;;;;;27.65;42.60;96934.66;5081899;28;20020;-27
2023/09/02 10:57:31;;;;;;;3.45;2.33;;;;;;;27.70;42.49;96933.78;5083093;28;20016;-27
2023/09/02 11:00:15;;;;;;;3.78;2.45;;;;;;;27.70;42.21;96928.97;5083317;28;20024;-27
2023/09/02 11:02:42;;;;;;;4.35;2.63;;;;;;;27.76;42.53;96932.44;5082806;28;20072;-26
2023/09/02 11:05:08;;;;;;;4.32;2.50;;;;;;;27.75;42.16;96927.41;5082862;28;20112;-26
2023/09/02 11:07:34;;;;;;;4.03;2.08;;;;;;;27.80;42.28;96946.06;5079145;28;20052;-27
2023/09/02 11:10:00;;;;;;;5.15;2.22;;;;;;;27.65;42.48;96943.00;5085671;28;20120;-27
2023/09/02 11:12:27;;;;;;;6.25;2.00;;;;;;;27.73;41.96;96946.69;5084962;28;20529;-27
2023/09/02 11:15:08;;;;;;;3.75;2.45;;;;;;;27.74;42.20;96935.00;5078551;28;20021;-27
2023/09/02 11:17:37;;;;;;;3.90;1.98;;;;;;;27.74;41.79;96937.03;5078343;28;20024;-27
2023/09/02 11:20:08;;;;;;;5.50;2.13;;;;;;;27.81;41.77;96933.66;5085117;28;20031;-27
2023/09/02 11:22:48;;;;;;;4.43;2.22;;;;;;;27.83;41.23;96928.28;5076735;28;20025;-27
2023/09/02 11:25:29;;;;;;;4.40;2.00;;;;;;;27.90;41.34;96936.03;5085155;28;20541;-28
2023/09/02 11:27:56;;;;;;;4.22;2.17;;;;;;;27.77;40.45;96935.97;5074337;28;20041;-26
2023/09/02 11:30:23;;;;;;;5.47;2.60;;;;;;;27.79;40.80;96934.19;5089684;28;20024;-27
2023/09/02 11:32:49;;;;;;;4.40;2.33;;;;;;;27.87;40.45;96934.31;5089774;28;20048;-27
2023/09/02 11:35:22;;;;;;;4.57;2.42;;;;;;;27.87;40.83;96937.84;5086506;28;20032;-27